Weather reports worldwide

Advertisment
Siracusa, Italy (16464): temperature & dewpoint: 12.09.2019 05:00:00 - 18.09.2019 05:00:00 (CEST)Siracusa, Italy (16464): wind speed: 12.09.2019 05:00:00 - 18.09.2019 05:00:00 (CEST)Siracusa, Italy (16464): wind direction: 12.09.2019 05:00:00 - 18.09.2019 05:00:00 (CEST)Siracusa, Italy (16464): reduced air pressure: 12.09.2019 05:00:00 - 18.09.2019 05:00:00 (CEST)
Date & Time tt [°C] td [°C] ff [km/h] ff [kn] dd ppp [hPa]
18.09.2019 05:00:00 20,6 16,4 5 3 SSW 1015,4
18.09.2019 04:00:00 21,0 16,1 5 3 SSW 1015,5
18.09.2019 03:00:00 22,1 17,0 4 2 SSW 1015,7
18.09.2019 02:00:00 23,0 17,4 4 2 S 1015,9
18.09.2019 01:00:00 - - - - - -
18.09.2019 00:00:00 - - - - - -
17.09.2019 23:00:00 24,6 18,5 8 4 SW 1016,0
17.09.2019 22:00:00 - - - - - -
17.09.2019 21:00:00 - - - - - -
17.09.2019 20:00:00 27,0 20,3 16 9 SSW 1014,9
17.09.2019 19:00:00 - - - - - -
17.09.2019 18:00:00 28,3 18,3 24 13 SW 1015,1
17.09.2019 17:00:00 28,5 17,6 22 12 SW 1015,5
17.09.2019 16:00:00 28,1 19,3 18 10 SW 1016,1
17.09.2019 15:00:00 27,6 20,1 21 11 SW 1016,8
17.09.2019 14:00:00 28,0 21,0 16 9 SW 1017,2
17.09.2019 13:00:00 27,8 20,6 15 8 SW 1017,4
17.09.2019 12:00:00 27,6 19,9 9 5 SSW 1017,9
17.09.2019 11:00:00 27,1 19,6 5 3 SW 1018,1
17.09.2019 10:00:00 25,9 19,2 4 2 S 1017,9
17.09.2019 09:00:00 22,7 17,8 2 1 SSW 1017,7
17.09.2019 08:00:00 19,5 14,7 2 1 SSW 1017,6
17.09.2019 07:00:00 18,7 13,7 2 1 S 1017,4
17.09.2019 06:00:00 19,0 13,8 5 3 SSW 1017,3
17.09.2019 05:00:00 19,5 14,4 4 2 SSW 1017,4
17.09.2019 04:00:00 19,6 14,3 4 2 S 1017,5
17.09.2019 03:00:00 20,0 14,5 4 2 SSW 1017,8
17.09.2019 02:00:00 20,4 15,1 2 1 SSW 1018,1
17.09.2019 01:00:00 21,3 15,7 2 1 SSW 1018,1
17.09.2019 00:00:00 22,0 16,2 0 0 N 1018,3
16.09.2019 23:00:00 22,8 16,5 5 3 S 1018,6
16.09.2019 22:00:00 24,0 16,9 5 3 SW 1018,5
16.09.2019 21:00:00 25,3 18,4 9 5 S 1018,0
16.09.2019 20:00:00 25,9 20,2 11 6 S 1017,9
16.09.2019 19:00:00 26,4 20,4 16 9 SSW 1017,8
16.09.2019 18:00:00 - - - - - -
16.09.2019 17:00:00 27,0 19,8 16 9 SSW 1018,3
16.09.2019 16:00:00 27,4 20,2 15 8 SSW 1018,7
16.09.2019 15:00:00 28,3 18,6 13 7 SW 1018,9
16.09.2019 14:00:00 28,0 18,9 13 7 SSW 1019,6
16.09.2019 13:00:00 27,4 18,6 13 7 WSW 1020,1
16.09.2019 12:00:00 27,9 18,0 5 3 W 1020,4
16.09.2019 11:00:00 27,2 18,7 5 3 W 1020,5
16.09.2019 10:00:00 26,2 20,2 2 1 SSW 1020,5
16.09.2019 09:00:00 22,4 17,9 4 2 S 1020,4
16.09.2019 08:00:00 19,4 15,4 4 2 S 1020,2
16.09.2019 07:00:00 18,6 14,4 2 1 S 1019,8
16.09.2019 06:00:00 - - - - - -
16.09.2019 05:00:00 19,2 15,2 4 2 SSW 1019,8
16.09.2019 04:00:00 19,4 15,2 4 2 SW 1020,1
16.09.2019 03:00:00 19,7 15,7 4 2 SW 1020,5
16.09.2019 02:00:00 20,4 16,4 2 1 SSW 1021,1
16.09.2019 01:00:00 20,9 16,0 2 1 SSW 1021,3
16.09.2019 00:00:00 22,1 16,3 2 1 SW 1021,5
15.09.2019 23:00:00 23,2 16,9 2 1 SSW 1021,8
15.09.2019 22:00:00 23,9 17,6 5 3 SW 1021,8
15.09.2019 21:00:00 25,0 18,6 4 2 SSW 1021,4
15.09.2019 20:00:00 26,2 19,5 11 6 SSW 1021,0
15.09.2019 19:00:00 26,5 20,3 13 7 SSW 1021,0
15.09.2019 18:00:00 27,5 19,5 15 8 SSW 1021,4
15.09.2019 17:00:00 27,8 18,7 15 8 SW 1021,5
15.09.2019 16:00:00 28,1 18,4 15 8 SW 1022,0
15.09.2019 15:00:00 27,9 16,1 8 4 SW 1022,5
15.09.2019 14:00:00 27,6 19,1 8 4 W 1022,9
15.09.2019 13:00:00 26,9 19,2 11 6 WNW 1023,2
15.09.2019 12:00:00 26,9 18,4 11 6 WNW 1023,6
15.09.2019 11:00:00 27,3 18,8 8 4 W 1023,9
15.09.2019 10:00:00 26,7 19,3 2 1 WSW 1023,8
15.09.2019 09:00:00 23,0 16,7 2 1 SW 1024,0
15.09.2019 08:00:00 19,1 12,8 4 2 SW 1023,5
15.09.2019 07:00:00 17,5 11,0 4 2 SW 1022,9
15.09.2019 06:00:00 17,7 11,0 4 2 SW 1022,7
15.09.2019 05:00:00 18,2 11,0 2 1 SW 1022,6
15.09.2019 04:00:00 18,6 11,6 2 1 SW 1022,7
15.09.2019 03:00:00 18,6 11,6 4 2 SW 1022,7
15.09.2019 02:00:00 19,3 12,3 2 1 SW 1023,1
15.09.2019 01:00:00 19,7 12,7 4 2 SW 1023,4
15.09.2019 00:00:00 20,4 13,3 4 2 SW 1023,6
14.09.2019 23:00:00 21,5 14,1 4 2 SW 1023,7
14.09.2019 22:00:00 23,3 15,5 2 1 SW 1023,5
14.09.2019 21:00:00 25,4 15,9 2 1 SW 1023,2
14.09.2019 20:00:00 26,7 17,1 5 3 SW 1022,7
14.09.2019 19:00:00 27,6 16,8 8 4 SW 1022,5
14.09.2019 18:00:00 28,3 14,8 5 3 W 1022,5
14.09.2019 17:00:00 28,2 15,1 5 3 W 1022,5
14.09.2019 16:00:00 28,6 15,8 9 5 WNW 1022,9
14.09.2019 15:00:00 28,9 12,3 8 4 W 1023,3
14.09.2019 14:00:00 28,7 12,6 11 6 W 1023,9
14.09.2019 13:00:00 28,8 12,3 9 5 W 1024,0
14.09.2019 12:00:00 28,2 16,1 8 4 WNW 1024,3
14.09.2019 11:00:00 27,6 16,8 11 6 WNW 1024,2
14.09.2019 10:00:00 26,5 18,3 11 6 W 1024,0
14.09.2019 09:00:00 25,3 19,1 9 5 WNW 1024,2
14.09.2019 08:00:00 20,6 16,6 4 2 SSW 1023,9
14.09.2019 07:00:00 19,8 15,8 4 2 SSW 1023,6
14.09.2019 06:00:00 20,1 15,9 4 2 S 1023,3
14.09.2019 05:00:00 20,4 16,0 4 2 S 1023,4
14.09.2019 04:00:00 20,6 16,1 2 1 SSW 1023,5
14.09.2019 03:00:00 21,3 16,4 4 2 S 1023,9
14.09.2019 02:00:00 21,7 16,8 4 2 S 1024,4
14.09.2019 01:00:00 22,2 17,1 4 2 S 1024,8
14.09.2019 00:00:00 22,7 16,9 5 3 SSW 1024,9
13.09.2019 23:00:00 24,3 17,7 5 3 SW 1025,1
13.09.2019 22:00:00 25,5 18,6 2 1 SW 1024,9
13.09.2019 21:00:00 26,4 19,0 5 3 SW 1024,5
13.09.2019 20:00:00 27,0 19,0 8 4 SW 1023,9
13.09.2019 19:00:00 27,5 18,4 5 3 SW 1023,7
13.09.2019 18:00:00 28,0 17,8 9 5 SSW 1023,6
13.09.2019 17:00:00 28,2 17,7 8 4 WNW 1023,4
13.09.2019 16:00:00 28,9 16,7 8 4 W 1023,5
13.09.2019 15:00:00 29,1 19,4 5 3 WSW 1023,6
13.09.2019 14:00:00 28,5 21,2 15 8 W 1024,0
13.09.2019 13:00:00 28,4 19,6 18 10 WNW 1024,1
13.09.2019 12:00:00 27,6 18,3 15 8 W 1024,5
13.09.2019 11:00:00 27,4 18,1 13 7 W 1024,7
13.09.2019 10:00:00 26,6 17,9 13 7 WNW 1024,7
13.09.2019 09:00:00 23,8 20,1 2 1 SW 1024,5
13.09.2019 08:00:00 20,6 17,3 4 2 SW 1024,4
13.09.2019 07:00:00 20,0 16,6 4 2 SSW 1024,2
13.09.2019 06:00:00 20,5 17,1 4 2 S 1023,8
13.09.2019 05:00:00 20,7 17,1 5 3 SSW 1023,7
13.09.2019 04:00:00 21,5 17,4 4 2 SSW 1023,7
13.09.2019 03:00:00 22,2 17,7 4 2 SW 1023,8
13.09.2019 02:00:00 23,6 19,5 4 2 NW 1024,3
13.09.2019 01:00:00 22,8 18,3 5 3 SSW 1024,3
13.09.2019 00:00:00 23,7 18,9 4 2 SW 1024,5
12.09.2019 23:00:00 26,3 20,6 4 2 W 1024,8
12.09.2019 22:00:00 26,7 20,7 4 2 W 1024,7
12.09.2019 21:00:00 26,1 19,9 2 1 SSW 1024,6
12.09.2019 20:00:00 26,7 20,0 2 1 SSW 1024,2
12.09.2019 19:00:00 27,2 20,2 5 3 SW 1023,6
12.09.2019 18:00:00 27,6 19,6 4 2 WNW 1023,4
12.09.2019 17:00:00 27,7 20,5 8 4 W 1023,3
12.09.2019 16:00:00 28,2 21,2 8 4 WSW 1023,6
12.09.2019 15:00:00 27,5 20,8 11 6 WNW 1023,8
12.09.2019 14:00:00 27,4 20,7 11 6 WNW 1024,0
12.09.2019 13:00:00 27,1 20,1 13 7 W 1024,2
12.09.2019 12:00:00 27,0 20,0 11 6 W 1024,3
12.09.2019 11:00:00 26,9 20,7 11 6 W 1024,3
12.09.2019 10:00:00 26,2 20,5 13 7 WNW 1023,9
12.09.2019 09:00:00 25,2 20,8 13 7 WNW 1023,4
12.09.2019 08:00:00 22,2 18,5 4 2 SW 1023,3
12.09.2019 07:00:00 23,2 19,9 8 4 WNW 1022,4
12.09.2019 06:00:00 22,8 20,3 4 2 NW 1021,7
12.09.2019 05:00:00 21,6 19,3 4 2 W 1021,7

tt = temperature
td = dewpoint
ff = wind speed
dd = wind direction
ppp = reduced air pressure

Next stations